createdAt,value
2024-02-15T00:04:23.943Z,79.32
2024-02-15T00:09:27.229Z,78.83
2024-02-15T00:14:32.707Z,79.25
2024-02-15T00:19:35.637Z,79.63
2024-02-15T00:24:39.749Z,78.74
2024-02-15T00:29:44.261Z,79.20
2024-02-15T00:34:48.149Z,80.02
2024-02-15T00:39:51.325Z,78.28
2024-02-15T00:44:55.674Z,77.75
2024-02-15T00:49:59.488Z,78.51
2024-02-15T00:55:02.531Z,78.73
2024-02-15T01:00:10.631Z,78.63
2024-02-15T01:05:16.745Z,79.56
2024-02-15T01:10:19.756Z,79.32
2024-02-15T01:15:24.089Z,80.09
2024-02-15T01:20:27.803Z,79.98
2024-02-15T01:25:31.395Z,80.47
2024-02-15T01:30:35.689Z,81.12
2024-02-15T01:35:38.768Z,80.87
2024-02-15T01:40:41.679Z,81.85
2024-02-15T01:45:48.150Z,81.88
2024-02-15T01:50:52.993Z,81.54
2024-02-15T01:55:58.718Z,81.98
2024-02-15T02:01:04.246Z,81.67
2024-02-15T02:06:07.771Z,81.90
2024-02-15T02:11:10.997Z,81.08
2024-02-15T02:16:28.839Z,81.06
2024-02-15T02:21:31.890Z,80.69
2024-02-15T02:26:36.803Z,81.45
2024-02-15T02:31:40.050Z,81.61
2024-02-15T02:36:46.784Z,81.54
2024-02-15T02:41:51.095Z,82.22
2024-02-15T02:46:54.040Z,82.72
2024-02-15T02:51:56.896Z,82.24
2024-02-15T02:57:01.220Z,81.87
2024-02-15T03:02:04.886Z,81.26
2024-02-15T03:07:08.117Z,80.78
2024-02-15T03:12:12.460Z,81.65
2024-02-15T03:17:15.349Z,81.06
2024-02-15T03:22:18.219Z,80.55
2024-02-15T03:27:24.303Z,80.31
2024-02-15T03:32:27.457Z,81.63
2024-02-15T03:37:30.946Z,80.76
2024-02-15T03:42:37.872Z,80.91
2024-02-15T03:47:41.127Z,80.90
2024-02-15T03:52:44.887Z,81.03
2024-02-15T03:57:49.282Z,81.08
2024-02-15T04:02:52.339Z,80.46
2024-02-15T04:07:55.415Z,80.16
2024-02-15T04:13:00.172Z,80.79
2024-02-15T04:18:03.245Z,79.94
2024-02-15T04:23:06.170Z,79.25
2024-02-15T04:28:10.488Z,79.83
2024-02-15T04:33:13.752Z,80.57
2024-02-15T04:38:16.865Z,79.29
2024-02-15T04:43:21.445Z,79.93
2024-02-15T04:48:26.150Z,79.35
2024-02-15T04:53:31.281Z,79.90
2024-02-15T04:58:37.740Z,80.18
2024-02-15T05:03:40.707Z,80.12
2024-02-15T05:08:44.511Z,80.04
2024-02-15T05:13:51.544Z,79.73
2024-02-15T05:18:55.387Z,80.19
2024-02-15T05:23:58.782Z,80.32
2024-02-15T05:29:03.176Z,80.38
2024-02-15T05:34:09.156Z,80.10
2024-02-15T05:39:15.683Z,80.20
2024-02-15T05:44:21.758Z,80.54
2024-02-15T05:49:25.296Z,80.59
2024-02-15T05:54:28.322Z,80.37
2024-02-15T05:59:32.708Z,80.92
2024-02-15T06:04:35.738Z,80.51
2024-02-15T06:09:41.033Z,80.02
2024-02-15T06:14:45.417Z,80.50
2024-02-15T06:19:48.531Z,80.43
2024-02-15T06:24:51.784Z,80.83
2024-02-15T06:30:13.697Z,80.65
2024-02-15T06:35:34.970Z,81.39
2024-02-15T06:40:38.227Z,80.95
2024-02-15T06:45:47.626Z,80.63
2024-02-15T06:50:50.895Z,80.14
2024-02-15T06:55:54.008Z,81.73
2024-02-15T07:00:58.550Z,80.68
2024-02-15T07:06:01.914Z,81.03
2024-02-15T07:11:05.445Z,80.51
2024-02-15T07:16:10.913Z,80.73
2024-02-15T07:21:15.366Z,80.25
2024-02-15T07:26:20.382Z,79.58
2024-02-15T07:31:25.149Z,80.20
2024-02-15T07:36:28.694Z,80.20
2024-02-15T07:41:34.203Z,79.64
2024-02-15T07:46:40.003Z,79.46
2024-02-15T07:51:42.999Z,79.36
2024-02-15T07:56:45.990Z,79.34
2024-02-15T08:01:51.545Z,78.31
2024-02-15T08:06:55.211Z,78.18
2024-02-15T08:11:59.612Z,77.13
2024-02-15T08:17:04.659Z,75.00
2024-02-15T08:22:08.574Z,75.29
2024-02-15T08:27:12.241Z,74.56
2024-02-15T08:32:16.546Z,75.08
2024-02-15T08:37:19.798Z,75.49
2024-02-15T08:42:23.480Z,73.90
2024-02-15T08:47:28.108Z,71.78
2024-02-15T08:52:31.040Z,71.50
2024-02-15T08:57:33.985Z,72.51
2024-02-15T09:02:38.291Z,72.52
2024-02-15T09:07:42.597Z,71.94
2024-02-15T09:12:48.453Z,72.47
2024-02-15T09:17:55.844Z,73.19
2024-02-15T09:22:59.089Z,72.31
2024-02-15T09:28:02.032Z,72.71
2024-02-15T09:33:07.030Z,71.06
2024-02-15T09:38:10.751Z,71.62
2024-02-15T09:43:14.984Z,70.46
2024-02-15T09:48:22.469Z,70.13
2024-02-15T09:53:26.996Z,70.97
2024-02-15T09:58:32.974Z,70.50
2024-02-15T10:03:41.751Z,70.70
2024-02-15T10:08:44.853Z,70.54
2024-02-15T10:13:48.680Z,70.32
2024-02-15T10:18:53.384Z,70.29
2024-02-15T10:24:07.084Z,69.33
2024-02-15T10:29:11.826Z,70.00
2024-02-15T10:34:16.640Z,70.37
2024-02-15T10:39:21.552Z,69.51
2024-02-15T10:44:27.569Z,72.23
2024-02-15T10:49:31.933Z,71.18
2024-02-15T10:54:49.020Z,71.59
2024-02-15T10:59:58.677Z,71.98
2024-02-15T11:05:11.220Z,72.55
2024-02-15T11:10:18.093Z,73.59
2024-02-15T11:15:49.972Z,72.84
2024-02-15T11:20:57.332Z,73.08
2024-02-15T11:26:01.999Z,73.28
2024-02-15T11:31:05.390Z,71.96
2024-02-15T11:36:12.866Z,72.14
2024-02-15T11:41:21.444Z,71.68
2024-02-15T11:46:26.829Z,71.57
2024-02-15T11:51:34.668Z,71.74
2024-02-15T11:57:06.356Z,71.62
2024-02-15T12:02:26.870Z,69.95
2024-02-15T12:07:48.940Z,69.10
2024-02-15T12:13:13.842Z,69.08
2024-02-15T12:18:34.713Z,68.86
2024-02-15T12:23:42.520Z,69.39
2024-02-15T12:28:47.074Z,69.46
2024-02-15T12:34:02.856Z,70.88
2024-02-15T12:39:13.579Z,68.62
2024-02-15T12:44:18.289Z,69.07
2024-02-15T12:49:31.747Z,68.90
2024-02-15T12:54:36.128Z,68.43
2024-02-15T12:59:39.678Z,68.83
2024-02-15T13:04:42.617Z,69.66
2024-02-15T13:09:49.001Z,69.60
2024-02-15T13:14:52.756Z,67.79
2024-02-15T13:20:03.510Z,66.66
2024-02-15T13:25:10.103Z,66.65
2024-02-15T13:30:14.141Z,65.75
2024-02-15T13:35:19.496Z,66.44
2024-02-15T13:40:24.955Z,65.32
2024-02-15T13:45:33.488Z,63.77
2024-02-15T13:50:38.576Z,63.99
2024-02-15T13:55:43.214Z,64.34
2024-02-15T14:00:46.483Z,65.54
2024-02-15T14:05:50.970Z,64.76
2024-02-15T14:10:55.527Z,66.42
2024-02-15T14:15:58.830Z,65.77
2024-02-15T14:21:01.846Z,65.75
2024-02-15T14:26:08.147Z,65.42
2024-02-15T14:31:30.807Z,66.00
2024-02-15T14:36:33.726Z,65.19
2024-02-15T14:41:49.102Z,66.14
2024-02-15T14:46:53.029Z,67.00
2024-02-15T14:51:55.933Z,66.29
2024-02-15T14:57:00.656Z,64.89
2024-02-15T15:02:11.946Z,66.30
2024-02-15T15:07:33.036Z,66.01
2024-02-15T15:12:41.285Z,65.90
2024-02-15T15:17:44.567Z,66.29
2024-02-15T15:22:47.691Z,66.55
2024-02-15T15:27:52.929Z,66.45
2024-02-15T15:32:56.335Z,66.16
2024-02-15T15:38:00.199Z,66.22
2024-02-15T15:43:06.236Z,66.55
2024-02-15T15:48:09.584Z,68.03
2024-02-15T15:53:12.969Z,68.61
2024-02-15T15:58:17.272Z,68.77
2024-02-15T16:03:20.568Z,69.95
2024-02-15T16:08:23.769Z,67.65
2024-02-15T16:13:28.040Z,67.86
2024-02-15T16:18:31.029Z,67.45
2024-02-15T16:23:33.977Z,67.90
2024-02-15T16:33:49.321Z,69.76
2024-02-15T16:38:52.445Z,69.20
2024-02-15T16:43:58.132Z,70.07
2024-02-15T16:49:01.482Z,70.00
2024-02-15T16:54:06.183Z,69.98
2024-02-15T16:59:11.435Z,69.55
2024-02-15T17:04:16.821Z,70.06
2024-02-15T17:09:20.308Z,69.93
2024-02-15T17:14:25.020Z,70.54
2024-02-15T17:19:28.113Z,71.33
2024-02-15T17:24:32.542Z,71.28
2024-02-15T17:29:37.657Z,71.38
2024-02-15T17:34:40.570Z,71.95
2024-02-15T17:39:44.555Z,71.86
2024-02-15T17:44:50.062Z,71.88
2024-02-15T17:49:54.797Z,73.10
2024-02-15T17:54:57.818Z,72.71
2024-02-15T18:00:02.122Z,73.31
2024-02-15T18:05:25.210Z,72.50
2024-02-15T18:10:28.190Z,74.67
2024-02-15T18:15:35.308Z,74.28
2024-02-15T18:20:38.576Z,73.67
2024-02-15T18:25:41.718Z,74.34
2024-02-15T18:30:48.627Z,73.94
2024-02-15T18:35:52.949Z,74.68
2024-02-15T18:40:58.340Z,74.78
2024-02-15T18:46:03.097Z,74.33
2024-02-15T18:51:06.667Z,75.01
2024-02-15T18:56:15.403Z,74.14
2024-02-15T19:01:20.025Z,74.66
2024-02-15T19:06:23.060Z,75.93
2024-02-15T19:11:27.642Z,76.84
2024-02-15T19:16:33.641Z,74.78
2024-02-15T19:21:37.452Z,75.04
2024-02-15T19:26:42.290Z,75.92
2024-02-15T19:31:48.268Z,76.20
2024-02-15T19:36:55.790Z,75.61
2024-02-15T19:42:01.162Z,76.07
2024-02-15T19:47:05.941Z,76.15
2024-02-15T19:52:10.511Z,76.67
2024-02-15T19:57:13.444Z,78.53
2024-02-15T20:02:18.127Z,76.86
2024-02-15T20:07:29.569Z,77.71
2024-02-15T20:12:32.681Z,76.96
2024-02-15T20:17:37.407Z,76.62
2024-02-15T20:22:42.739Z,77.85
2024-02-15T20:27:46.125Z,76.98
2024-02-15T20:32:50.625Z,77.48
2024-02-15T20:37:53.816Z,77.00
2024-02-15T20:42:57.436Z,76.48
2024-02-15T20:48:03.218Z,77.04
2024-02-15T20:53:06.452Z,77.23
2024-02-15T20:58:09.413Z,78.37
2024-02-15T21:03:13.752Z,78.03
2024-02-15T21:08:20.316Z,78.35
2024-02-15T21:13:25.369Z,78.03
2024-02-15T21:18:32.225Z,78.10
2024-02-15T21:23:36.179Z,77.72
2024-02-15T21:28:40.771Z,77.49
2024-02-15T21:33:45.620Z,79.73
2024-02-15T21:38:49.168Z,79.46
2024-02-15T21:43:52.109Z,78.49
2024-02-15T21:48:56.489Z,79.86
2024-02-15T21:53:59.480Z,79.61
2024-02-15T21:59:02.455Z,79.72
2024-02-15T22:04:06.897Z,78.85
2024-02-15T22:09:09.933Z,78.23
2024-02-15T22:14:12.853Z,78.49
2024-02-15T22:19:17.365Z,79.03
2024-02-15T22:24:20.446Z,80.88
2024-02-15T22:29:23.450Z,80.29
2024-02-15T22:34:27.856Z,79.08
2024-02-15T22:39:31.125Z,79.54
2024-02-15T22:44:35.656Z,78.72
2024-02-15T22:49:40.060Z,78.71
2024-02-15T22:54:49.597Z,79.78
2024-02-15T22:59:53.442Z,79.39
2024-02-15T23:05:00.199Z,80.32
2024-02-15T23:10:03.307Z,79.07
2024-02-15T23:15:07.472Z,80.67
2024-02-15T23:20:13.355Z,80.91
2024-02-15T23:25:16.359Z,81.44
2024-02-15T23:30:19.428Z,79.20
2024-02-15T23:35:31.866Z,81.23
2024-02-15T23:40:34.778Z,79.91
2024-02-15T23:45:37.852Z,79.85
2024-02-15T23:50:42.158Z,78.97
2024-02-15T23:55:45.301Z,79.88
